Time;durP1;ratioP1;P1;durP2;ratioP2;P2;SDS_P1;SDS_P2;PMS_P1;PMS_P2;Temp;Humidity;BMP_temperature;BMP_pressure;BME280_temperature;BME280_humidity;BME280_pressure;Samples;Min_cycle;Max_cycle;Signal;HPM_P1;HPM_P2
2022/12/11 00:01:18;;;;;;;33.20;11.85;;;;;8.60;100921.00;;;;5010738;28;20212;-74
2022/12/11 00:03:46;;;;;;;31.45;12.32;;;;;8.70;100921.00;;;;5010170;28;20209;-74
2022/12/11 00:06:17;;;;;;;31.55;12.80;;;;;8.60;100919.00;;;;5010000;28;20209;-74
2022/12/11 00:08:44;;;;;;;26.67;11.60;;;;;8.60;100917.00;;;;5010651;28;20216;-74
2022/12/11 00:11:13;;;;;;;25.17;10.80;;;;;8.60;100916.00;;;;5009704;28;20690;-75
2022/12/11 00:13:40;;;;;;;27.92;11.90;;;;;8.70;100911.00;;;;5010650;28;20205;-75
2022/12/11 00:16:08;;;;;;;33.00;13.18;;;;;8.70;100914.00;;;;5009992;28;20212;-75
2022/12/11 00:18:35;;;;;;;24.92;10.55;;;;;8.70;100926.00;;;;5009935;28;20311;-74
2022/12/11 00:21:03;;;;;;;24.73;10.77;;;;;8.60;100919.00;;;;5009578;28;20205;-75
2022/12/11 00:23:34;;;;;;;27.17;12.13;;;;;8.60;100926.00;;;;5009434;28;20689;-74
2022/12/11 00:26:05;;;;;;;27.92;11.60;;;;;8.60;100925.00;;;;5022087;28;20204;-74
2022/12/11 00:28:32;;;;;;;24.88;11.43;;;;;8.70;100918.00;;;;5009922;28;20193;-75
2022/12/11 00:31:03;;;;;;;28.80;12.20;;;;;8.60;100911.00;;;;5008922;28;20219;-74
2022/12/11 00:33:30;;;;;;;27.17;12.07;;;;;8.70;100914.00;;;;5009860;28;20250;-75
2022/12/11 00:35:57;;;;;;;23.65;11.32;;;;;8.70;100910.00;;;;5009357;28;20602;-75
2022/12/11 00:38:24;;;;;;;26.02;12.32;;;;;8.70;100916.00;;;;5008875;28;20581;-75
2022/12/11 00:40:57;;;;;;;26.23;12.60;;;;;8.70;100917.00;;;;5008451;28;20216;-74
2022/12/11 00:43:24;;;;;;;23.15;12.43;;;;;8.70;100922.00;;;;5008323;28;20204;-74
2022/12/11 00:45:51;;;;;;;28.85;13.18;;;;;8.70;100908.00;;;;5009585;28;20678;-74
2022/12/11 00:48:19;;;;;;;24.75;12.25;;;;;8.70;100908.00;;;;5008756;28;20216;-74
2022/12/11 00:50:47;;;;;;;26.92;11.60;;;;;8.70;100912.00;;;;5009361;28;20223;-74
2022/12/11 00:53:14;;;;;;;26.15;12.15;;;;;8.70;100909.00;;;;5008087;28;20708;-74
2022/12/11 00:55:42;;;;;;;27.50;12.23;;;;;8.70;100905.00;;;;5011860;28;20196;-74
2022/12/11 00:58:12;;;;;;;26.92;12.20;;;;;8.70;100905.00;;;;5023875;28;20220;-74
2022/12/11 01:00:41;;;;;;;23.02;11.13;;;;;8.70;100899.00;;;;5008819;28;20216;-74
2022/12/11 01:03:09;;;;;;;25.77;11.75;;;;;8.70;100897.00;;;;5008302;28;20197;-75
2022/12/11 01:05:37;;;;;;;25.38;12.82;;;;;8.70;100893.00;;;;5008041;28;20204;-75
2022/12/11 01:08:04;;;;;;;25.88;12.85;;;;;8.70;100893.00;;;;5008905;28;20249;-74
2022/12/11 01:10:31;;;;;;;28.65;12.27;;;;;8.70;100896.00;;;;5008443;28;20201;-74
2022/12/11 01:13:00;;;;;;;27.45;11.95;;;;;8.70;100889.00;;;;5008061;28;20221;-75
2022/12/11 01:15:31;;;;;;;26.20;11.65;;;;;8.70;100893.00;;;;5008790;28;20242;-75
2022/12/11 01:17:59;;;;;;;27.67;12.00;;;;;8.70;100888.00;;;;5008462;28;20636;-74
2022/12/11 01:20:28;;;;;;;27.42;12.60;;;;;8.70;100887.00;;;;5008209;28;20681;-75
2022/12/11 01:22:57;;;;;;;27.00;12.50;;;;;8.60;100886.00;;;;5009057;28;20205;-74
2022/12/11 01:25:25;;;;;;;27.48;13.15;;;;;8.70;100894.00;;;;5009321;28;20208;-74
2022/12/11 01:27:53;;;;;;;31.30;13.73;;;;;8.60;100893.00;;;;5008553;28;20207;-75
2022/12/11 01:30:21;;;;;;;32.78;12.82;;;;;8.60;100894.00;;;;5007737;28;20217;-74
2022/12/11 01:32:50;;;;;;;29.77;13.02;;;;;8.60;100895.00;;;;5008167;28;20240;-75
2022/12/11 01:35:18;;;;;;;28.10;12.80;;;;;8.60;100892.00;;;;5008061;28;20674;-74
2022/12/11 01:37:45;;;;;;;29.35;12.65;;;;;8.60;100897.00;;;;5008388;28;20213;-74
2022/12/11 01:40:15;;;;;;;29.48;11.65;;;;;8.60;100892.00;;;;5008747;28;20205;-74
2022/12/11 01:42:43;;;;;;;28.17;12.85;;;;;8.60;100900.00;;;;5008693;28;20208;-74
2022/12/11 01:45:30;;;;;;;28.63;13.40;;;;;8.50;100899.00;;;;5008071;28;20197;-74
2022/12/11 01:48:05;;;;;;;27.23;11.88;;;;;8.50;100894.00;;;;5008771;28;20204;-75
2022/12/11 01:50:35;;;;;;;22.42;10.80;;;;;8.60;100897.00;;;;5009112;28;20192;-74
2022/12/11 01:53:06;;;;;;;25.05;12.15;;;;;8.50;100901.00;;;;5010846;28;20231;-74
2022/12/11 01:55:34;;;;;;;24.77;11.57;;;;;8.60;100899.00;;;;5019774;28;20200;-75
2022/12/11 01:58:03;;;;;;;30.83;12.27;;;;;8.60;100896.00;;;;5021313;28;20201;-75
2022/12/11 02:00:30;;;;;;;26.40;11.65;;;;;8.60;100895.00;;;;5012842;28;20651;-74
2022/12/11 02:02:57;;;;;;;28.25;12.15;;;;;8.60;100892.00;;;;5012870;28;20204;-74
2022/12/11 02:05:26;;;;;;;30.17;12.95;;;;;8.60;100891.00;;;;5012142;28;20216;-74
2022/12/11 02:07:57;;;;;;;27.20;12.63;;;;;8.50;100888.00;;;;5013308;28;20204;-74
2022/12/11 02:10:32;;;;;;;26.40;11.50;;;;;8.60;100881.00;;;;5031349;28;20204;-75
2022/12/11 02:13:04;;;;;;;33.38;12.77;;;;;8.60;100884.00;;;;5017494;28;20219;-75
2022/12/11 02:15:35;;;;;;;28.08;13.77;;;;;8.60;100876.00;;;;5013116;28;20204;-74
2022/12/11 02:18:13;;;;;;;28.35;12.85;;;;;8.60;100872.00;;;;5011876;28;20204;-74
2022/12/11 02:20:48;;;;;;;30.20;13.38;;;;;8.60;100876.00;;;;5012416;28;20726;-74
2022/12/11 02:23:39;;;;;;;29.13;12.80;;;;;8.60;100877.00;;;;5011617;28;20535;-74
2022/12/11 02:26:20;;;;;;;25.38;12.73;;;;;8.60;100872.00;;;;5013364;28;20209;-74
2022/12/11 02:28:54;;;;;;;28.17;12.15;;;;;8.70;100870.00;;;;5012554;28;20584;-74
2022/12/11 02:31:27;;;;;;;28.92;12.85;;;;;8.70;100869.00;;;;5016601;28;20200;-74
2022/12/11 02:34:03;;;;;;;27.60;13.48;;;;;8.70;100860.00;;;;5031845;28;20224;-75
2022/12/11 02:36:35;;;;;;;27.60;12.20;;;;;8.80;100863.00;;;;5031306;28;20600;-74
2022/12/11 02:39:04;;;;;;;28.70;13.63;;;;;8.80;100857.00;;;;5031817;28;20215;-74
2022/12/11 02:41:32;;;;;;;25.85;13.23;;;;;8.80;100858.00;;;;5028519;28;20204;-75
2022/12/11 02:44:04;;;;;;;26.02;12.40;;;;;8.80;100852.00;;;;5030745;28;20200;-74
2022/12/11 02:46:34;;;;;;;28.10;13.93;;;;;8.80;100862.00;;;;5031624;28;20340;-74
2022/12/11 02:49:03;;;;;;;29.25;14.55;;;;;8.80;100860.00;;;;5020049;28;20710;-74
2022/12/11 02:51:38;;;;;;;27.73;13.15;;;;;8.80;100861.00;;;;5012442;28;20667;-75
2022/12/11 02:54:08;;;;;;;27.70;13.57;;;;;8.90;100857.00;;;;5011407;28;20220;-75
2022/12/11 02:56:41;;;;;;;25.20;12.38;;;;;8.90;100867.00;;;;5011762;28;20193;-75
2022/12/11 02:59:15;;;;;;;26.92;14.32;;;;;8.90;100858.00;;;;5010655;28;20193;-74
2022/12/11 03:01:42;;;;;;;28.42;13.85;;;;;8.90;100867.00;;;;5011954;28;20193;-74
2022/12/11 03:04:10;;;;;;;24.83;13.35;;;;;8.90;100860.00;;;;5010111;28;20200;-75
2022/12/11 03:06:43;;;;;;;26.90;13.27;;;;;8.90;100858.00;;;;5012167;28;20209;-75
2022/12/11 03:09:10;;;;;;;26.73;12.48;;;;;8.90;100852.00;;;;5010767;28;20300;-75
2022/12/11 03:11:37;;;;;;;26.33;13.27;;;;;8.90;100855.00;;;;5029420;28;20219;-74
2022/12/11 03:14:05;;;;;;;26.08;12.68;;;;;8.90;100856.00;;;;5030850;28;20717;-75
2022/12/11 03:16:37;;;;;;;26.05;12.68;;;;;8.90;100856.00;;;;5031098;28;20577;-75
2022/12/11 03:19:15;;;;;;;26.15;13.48;;;;;8.90;100858.00;;;;5030063;28;20197;-74
2022/12/11 03:21:50;;;;;;;25.25;13.70;;;;;8.90;100865.00;;;;5012946;28;20208;-75
2022/12/11 03:24:22;;;;;;;23.17;12.60;;;;;8.90;100853.00;;;;5010727;28;20713;-74
2022/12/11 03:26:55;;;;;;;28.38;14.13;;;;;8.90;100865.00;;;;5028545;28;20200;-74
2022/12/11 03:29:25;;;;;;;23.98;13.10;;;;;8.90;100855.00;;;;5030064;28;20196;-75
2022/12/11 03:31:58;;;;;;;24.85;14.65;;;;;8.80;100861.00;;;;5030268;28;20200;-75
2022/12/11 03:34:30;;;;;;;21.40;12.38;;;;;8.80;100860.00;;;;5031031;28;20326;-75
2022/12/11 03:36:59;;;;;;;23.60;12.63;;;;;8.90;100857.00;;;;5030961;28;20705;-74
2022/12/11 03:39:31;;;;;;;21.35;12.23;;;;;8.90;100862.00;;;;5023972;28;20205;-75
2022/12/11 03:42:01;;;;;;;20.80;12.30;;;;;8.90;100865.00;;;;5010605;28;20255;-75
2022/12/11 03:44:29;;;;;;;24.77;12.60;;;;;8.90;100861.00;;;;5009788;28;20667;-75
2022/12/11 03:47:00;;;;;;;21.27;11.32;;;;;8.90;100862.00;;;;5011139;28;20208;-74
2022/12/11 03:49:30;;;;;;;22.85;13.55;;;;;8.90;100862.00;;;;5010596;28;20206;-74
2022/12/11 03:51:59;;;;;;;20.92;12.07;;;;;8.90;100860.00;;;;5029172;28;20196;-74
2022/12/11 03:54:27;;;;;;;18.83;11.88;;;;;8.90;100856.00;;;;5028440;28;20667;-74
2022/12/11 03:56:57;;;;;;;21.23;11.43;;;;;8.90;100850.00;;;;5020240;28;20201;-74
2022/12/11 03:59:25;;;;;;;17.85;10.20;;;;;8.90;100847.00;;;;5010583;28;20201;-73
2022/12/11 04:01:52;;;;;;;18.63;10.90;;;;;8.90;100850.00;;;;5010762;28;20197;-73
2022/12/11 04:04:21;;;;;;;20.23;11.95;;;;;8.90;100847.00;;;;5010587;28;20552;-73
2022/12/11 04:06:48;;;;;;;17.48;10.18;;;;;8.90;100853.00;;;;5009262;28;20212;-73
2022/12/11 04:09:16;;;;;;;15.85;9.27;;;;;8.90;100857.00;;;;5012027;28;20597;-73
2022/12/11 04:11:43;;;;;;;14.30;8.77;;;;;8.90;100856.00;;;;5029937;28;20212;-73
2022/12/11 04:16:57;;;;;;;15.70;8.88;;;;;8.80;100850.00;;;;5009918;28;20204;-73
2022/12/11 04:24:53;;;;;;;16.70;9.73;;;;;8.80;100837.00;;;;5008877;28;20251;-73
2022/12/11 04:30:03;;;;;;;15.43;9.23;;;;;8.80;100844.00;;;;5010457;28;20347;-74
2022/12/11 04:32:31;;;;;;;15.25;9.55;;;;;8.80;100837.00;;;;5029243;28;20227;-73
2022/12/11 04:34:59;;;;;;;15.13;9.98;;;;;8.80;100831.00;;;;5028861;28;20299;-74
2022/12/11 04:37:27;;;;;;;15.82;9.55;;;;;8.80;100826.00;;;;5028013;28;20239;-74
2022/12/11 04:39:55;;;;;;;15.73;9.63;;;;;8.90;100828.00;;;;5028846;28;20200;-73
2022/12/11 04:42:22;;;;;;;15.75;10.15;;;;;8.90;100830.00;;;;5009556;28;20285;-73
2022/12/11 04:44:49;;;;;;;17.00;9.65;;;;;8.90;100829.00;;;;5009064;28;20204;-74
2022/12/11 04:47:17;;;;;;;16.35;10.13;;;;;8.90;100823.00;;;;5009079;28;20204;-74
2022/12/11 04:49:44;;;;;;;16.90;10.68;;;;;8.90;100831.00;;;;5007895;28;20197;-74
2022/12/11 04:52:12;;;;;;;17.55;10.45;;;;;8.90;100832.00;;;;5008923;28;20667;-74
2022/12/11 04:54:40;;;;;;;15.73;9.85;;;;;8.90;100830.00;;;;5008761;28;20737;-74
2022/12/11 04:57:07;;;;;;;17.20;10.38;;;;;8.90;100819.00;;;;5008235;28;20201;-74
2022/12/11 04:59:34;;;;;;;15.40;9.48;;;;;8.90;100820.00;;;;5008844;28;20200;-74
2022/12/11 05:02:02;;;;;;;15.88;9.90;;;;;8.90;100819.00;;;;5008437;28;20201;-74
2022/12/11 05:04:31;;;;;;;15.15;9.45;;;;;8.90;100822.00;;;;5015299;28;20212;-74
2022/12/11 05:06:59;;;;;;;15.70;9.35;;;;;8.90;100830.00;;;;5028390;28;20204;-74
2022/12/11 05:09:28;;;;;;;14.98;8.77;;;;;8.80;100825.00;;;;5027828;28;20216;-74
2022/12/11 05:11:56;;;;;;;14.15;8.65;;;;;8.80;100829.00;;;;5026442;28;20326;-74
2022/12/11 05:14:25;;;;;;;15.90;10.00;;;;;8.80;100834.00;;;;5027216;28;20227;-74
2022/12/11 05:16:52;;;;;;;14.70;9.10;;;;;8.80;100827.00;;;;5028323;28;20286;-74
2022/12/11 05:19:19;;;;;;;15.82;9.48;;;;;8.80;100825.00;;;;5027799;28;20208;-74
2022/12/11 05:21:46;;;;;;;14.15;8.38;;;;;8.80;100829.00;;;;5008427;28;20212;-74
2022/12/11 05:24:14;;;;;;;16.17;9.63;;;;;8.80;100821.00;;;;5008082;28;20205;-74
2022/12/11 05:26:42;;;;;;;15.00;9.13;;;;;8.80;100831.00;;;;5022540;28;20207;-74
2022/12/11 05:29:10;;;;;;;16.10;9.95;;;;;8.80;100817.00;;;;5027021;28;20207;-74
2022/12/11 05:31:37;;;;;;;16.90;10.10;;;;;8.80;100821.00;;;;5014098;28;20205;-74
2022/12/11 05:34:04;;;;;;;16.20;9.05;;;;;8.80;100826.00;;;;5007139;28;20221;-74
2022/12/11 05:36:33;;;;;;;16.52;9.93;;;;;8.80;100819.00;;;;5008213;28;20232;-74
2022/12/11 05:39:01;;;;;;;16.55;9.68;;;;;8.80;100822.00;;;;5019147;28;20204;-74
2022/12/11 05:41:31;;;;;;;17.30;9.60;;;;;8.80;100820.00;;;;5028200;28;20196;-74
2022/12/11 05:43:59;;;;;;;15.60;9.40;;;;;8.80;100827.00;;;;5024854;28;20192;-74
2022/12/11 05:46:29;;;;;;;18.35;10.73;;;;;8.80;100825.00;;;;5008058;28;20203;-74
2022/12/11 05:48:58;;;;;;;15.35;10.32;;;;;8.80;100816.00;;;;5008784;28;20678;-74
2022/12/11 05:51:26;;;;;;;20.38;10.93;;;;;8.90;100816.00;;;;5008760;28;20204;-74
2022/12/11 05:53:55;;;;;;;16.35;9.90;;;;;8.90;100812.00;;;;5008534;28;20236;-74
2022/12/11 05:56:25;;;;;;;17.33;10.25;;;;;8.90;100813.00;;;;5007513;28;20201;-74
2022/12/11 05:58:53;;;;;;;17.60;10.43;;;;;8.90;100807.00;;;;5007427;28;20615;-74
2022/12/11 06:01:23;;;;;;;16.92;10.05;;;;;8.90;100813.00;;;;5012248;28;20208;-74
2022/12/11 06:03:50;;;;;;;18.42;10.02;;;;;8.90;100814.00;;;;5008145;28;20193;-74
2022/12/11 06:06:18;;;;;;;19.02;11.43;;;;;8.90;100811.00;;;;5007252;28;20208;-74
2022/12/11 06:08:45;;;;;;;17.88;11.25;;;;;8.90;100813.00;;;;5008004;28;20221;-74
2022/12/11 06:11:13;;;;;;;19.00;12.15;;;;;8.90;100808.00;;;;5007986;28;20713;-74
2022/12/11 06:13:40;;;;;;;18.38;10.82;;;;;8.90;100818.00;;;;5006414;28;20676;-74
2022/12/11 06:16:08;;;;;;;17.70;10.93;;;;;8.90;100815.00;;;;5005365;28;20244;-74
2022/12/11 06:18:39;;;;;;;18.15;10.18;;;;;8.90;100819.00;;;;5007649;28;20211;-73
2022/12/11 06:21:14;;;;;;;19.35;12.27;;;;;8.80;100814.00;;;;5006468;28;20204;-74
2022/12/11 06:23:42;;;;;;;20.00;11.18;;;;;8.90;100813.00;;;;5007643;28;20205;-74
2022/12/11 06:26:10;;;;;;;21.00;12.25;;;;;8.90;100811.00;;;;5007994;28;20201;-74
2022/12/11 06:28:37;;;;;;;18.30;10.77;;;;;8.90;100813.00;;;;5007571;28;20200;-74
2022/12/11 06:31:06;;;;;;;19.38;11.27;;;;;8.90;100820.00;;;;5008241;28;20201;-74
2022/12/11 06:33:34;;;;;;;20.58;12.48;;;;;8.90;100819.00;;;;5008007;28;20221;-74
2022/12/11 06:36:05;;;;;;;21.45;10.82;;;;;8.80;100816.00;;;;5008161;28;20240;-74
2022/12/11 06:38:33;;;;;;;20.88;11.73;;;;;8.90;100827.00;;;;5009548;28;20585;-74
2022/12/11 06:41:03;;;;;;;18.13;10.93;;;;;8.90;100826.00;;;;5011539;28;20201;-74
2022/12/11 06:43:31;;;;;;;18.92;11.45;;;;;8.80;100832.00;;;;5010943;28;20211;-74
2022/12/11 06:45:58;;;;;;;21.33;12.57;;;;;8.90;100822.00;;;;5011915;28;20232;-74
2022/12/11 06:48:26;;;;;;;20.50;12.80;;;;;8.90;100829.00;;;;5011531;28;20212;-74
2022/12/11 06:50:53;;;;;;;19.35;11.02;;;;;8.90;100826.00;;;;5011475;28;20197;-74
2022/12/11 06:53:22;;;;;;;20.25;11.18;;;;;8.90;100826.00;;;;5011440;28;20320;-74
2022/12/11 06:55:49;;;;;;;20.73;11.68;;;;;8.90;100826.00;;;;5011689;28;20215;-74
2022/12/11 06:58:17;;;;;;;19.23;11.35;;;;;8.90;100828.00;;;;5010477;28;20205;-74
2022/12/11 07:00:44;;;;;;;22.58;11.88;;;;;8.90;100834.00;;;;5012461;28;20198;-74
2022/12/11 07:03:12;;;;;;;18.27;10.98;;;;;8.90;100834.00;;;;5011150;28;20200;-74
2022/12/11 07:05:40;;;;;;;21.15;10.80;;;;;8.90;100847.00;;;;5011876;28;20216;-74
2022/12/11 07:08:07;;;;;;;18.50;10.90;;;;;8.90;100836.00;;;;5010803;28;20201;-74
2022/12/11 07:10:36;;;;;;;18.17;11.38;;;;;8.80;100831.00;;;;5010996;28;20659;-74
2022/12/11 07:13:03;;;;;;;15.80;10.02;;;;;8.90;100835.00;;;;5010843;28;20197;-74
2022/12/11 07:15:31;;;;;;;16.90;10.98;;;;;8.90;100836.00;;;;5011781;28;20562;-74
2022/12/11 07:17:58;;;;;;;17.77;10.93;;;;;8.80;100832.00;;;;5011410;28;20209;-74
2022/12/11 07:20:25;;;;;;;18.02;11.05;;;;;8.80;100837.00;;;;5017384;28;20216;-74
2022/12/11 07:22:54;;;;;;;18.98;11.23;;;;;8.80;100837.00;;;;5031060;28;20196;-74
2022/12/11 07:25:22;;;;;;;19.15;12.20;;;;;8.80;100844.00;;;;5026494;28;20209;-74
2022/12/11 07:27:50;;;;;;;18.63;12.35;;;;;8.80;100844.00;;;;5010822;28;20204;-74
2022/12/11 07:30:18;;;;;;;19.30;12.30;;;;;8.80;100835.00;;;;5029116;28;20208;-74
2022/12/11 07:32:45;;;;;;;17.92;11.85;;;;;8.80;100847.00;;;;5031152;28;20207;-74
2022/12/11 07:35:12;;;;;;;18.13;11.77;;;;;8.80;100846.00;;;;5029917;28;20224;-74
2022/12/11 07:37:41;;;;;;;20.27;11.93;;;;;8.70;100849.00;;;;5022747;28;20201;-74
2022/12/11 07:40:09;;;;;;;19.38;11.07;;;;;8.70;100835.00;;;;5010413;28;20209;-74
2022/12/11 07:42:37;;;;;;;17.48;11.52;;;;;8.70;100839.00;;;;5021011;28;20615;-74
2022/12/11 07:45:06;;;;;;;19.15;11.90;;;;;8.60;100848.00;;;;5030070;28;20192;-74
2022/12/11 07:47:34;;;;;;;16.73;10.48;;;;;8.70;100845.00;;;;5031215;28;20207;-74
2022/12/11 07:50:01;;;;;;;16.85;10.95;;;;;8.70;100854.00;;;;5030122;28;20682;-74
2022/12/11 07:52:28;;;;;;;17.08;10.75;;;;;8.70;100854.00;;;;5030229;28;20266;-74
2022/12/11 07:54:56;;;;;;;15.77;10.90;;;;;8.70;100852.00;;;;5019328;28;20240;-74
2022/12/11 07:57:23;;;;;;;17.55;11.95;;;;;8.70;100851.00;;;;5010996;28;20221;-74
2022/12/11 07:59:50;;;;;;;18.25;11.57;;;;;8.70;100854.00;;;;5010631;28;20201;-74
2022/12/11 08:02:19;;;;;;;17.52;11.15;;;;;8.70;100857.00;;;;5010303;28;20208;-74
2022/12/11 08:04:46;;;;;;;19.45;11.70;;;;;8.70;100861.00;;;;5010521;28;20212;-74
2022/12/11 08:07:13;;;;;;;19.88;12.02;;;;;8.70;100870.00;;;;5010018;28;20201;-74
2022/12/11 08:09:41;;;;;;;18.00;11.60;;;;;8.70;100874.00;;;;5010367;28;20224;-74
2022/12/11 08:12:08;;;;;;;18.80;10.95;;;;;8.70;100864.00;;;;5010728;28;20228;-74
2022/12/11 08:14:35;;;;;;;16.92;10.68;;;;;8.70;100864.00;;;;5011003;28;20221;-74
2022/12/11 08:17:03;;;;;;;16.30;10.05;;;;;8.70;100856.00;;;;5010555;28;20209;-74
2022/12/11 08:19:32;;;;;;;17.88;10.30;;;;;8.60;100861.00;;;;5011023;28;20205;-74
2022/12/11 08:22:00;;;;;;;15.27;10.27;;;;;8.60;100854.00;;;;5010852;28;20205;-74
2022/12/11 08:24:27;;;;;;;14.93;10.63;;;;;8.70;100852.00;;;;5009673;28;20570;-74
2022/12/11 08:26:54;;;;;;;13.93;8.90;;;;;8.60;100855.00;;;;5025321;28;20204;-74
2022/12/11 08:29:22;;;;;;;15.13;9.20;;;;;8.70;100851.00;;;;5015469;28;20212;-74
2022/12/11 08:31:49;;;;;;;15.15;9.70;;;;;8.60;100854.00;;;;5010084;28;20192;-74
2022/12/11 08:34:16;;;;;;;18.17;10.18;;;;;8.60;100851.00;;;;5008727;28;20228;-74
2022/12/11 08:36:45;;;;;;;16.88;10.05;;;;;8.60;100851.00;;;;5009230;28;20236;-74
2022/12/11 08:39:12;;;;;;;14.25;9.38;;;;;8.70;100859.00;;;;5009662;28;20207;-74
2022/12/11 08:41:39;;;;;;;14.52;8.90;;;;;8.70;100849.00;;;;5009757;28;20212;-74
2022/12/11 08:44:11;;;;;;;17.30;9.77;;;;;8.60;100839.00;;;;5009711;28;20197;-74
2022/12/11 08:46:39;;;;;;;16.02;10.07;;;;;8.70;100838.00;;;;5009819;28;20219;-74
2022/12/11 08:49:06;;;;;;;18.08;11.68;;;;;8.70;100829.00;;;;5008594;28;20203;-74
2022/12/11 08:51:33;;;;;;;16.58;10.20;;;;;8.70;100835.00;;;;5009515;28;20196;-74
2022/12/11 08:54:02;;;;;;;17.45;11.52;;;;;8.70;100832.00;;;;5009419;28;20709;-74
2022/12/11 08:56:30;;;;;;;18.20;11.07;;;;;8.70;100837.00;;;;5009717;28;20205;-74
2022/12/11 08:59:00;;;;;;;18.30;10.60;;;;;8.80;100829.00;;;;5008914;28;20205;-74
2022/12/11 09:01:28;;;;;;;16.58;10.55;;;;;8.80;100821.00;;;;5008258;28;20205;-74
2022/12/11 09:03:57;;;;;;;18.88;11.13;;;;;8.80;100826.00;;;;5027363;28;20734;-74
2022/12/11 09:06:26;;;;;;;18.10;10.93;;;;;8.80;100832.00;;;;5025552;28;20196;-74
2022/12/11 09:08:55;;;;;;;17.67;10.50;;;;;8.90;100831.00;;;;5009498;28;20225;-74
2022/12/11 09:11:26;;;;;;;18.88;11.25;;;;;8.90;100825.00;;;;5008747;28;20672;-74
2022/12/11 09:13:53;;;;;;;18.27;10.82;;;;;8.90;100828.00;;;;5008526;28;20221;-72
2022/12/11 09:16:23;;;;;;;20.05;11.55;;;;;9.00;100833.00;;;;5008421;28;20204;-74
2022/12/11 09:18:53;;;;;;;17.02;11.23;;;;;9.00;100828.00;;;;5010226;28;20205;-74
2022/12/11 09:21:22;;;;;;;17.63;10.45;;;;;9.00;100833.00;;;;5008401;28;20197;-74
2022/12/11 09:23:52;;;;;;;17.17;10.70;;;;;9.00;100836.00;;;;5009306;28;20367;-74
2022/12/11 09:26:20;;;;;;;17.73;10.50;;;;;9.00;100835.00;;;;5017823;28;20200;-74
2022/12/11 09:28:50;;;;;;;17.10;10.18;;;;;9.00;100825.00;;;;5028866;28;20696;-74
2022/12/11 09:31:19;;;;;;;15.25;9.93;;;;;9.00;100831.00;;;;5028227;28;20200;-74
2022/12/11 09:33:46;;;;;;;17.45;10.93;;;;;9.10;100822.00;;;;5028749;28;20654;-74
2022/12/11 09:36:14;;;;;;;15.15;9.68;;;;;9.10;100825.00;;;;5023176;28;20232;-74
2022/12/11 09:38:42;;;;;;;18.52;12.38;;;;;9.10;100822.00;;;;5008252;28;20227;-74
2022/12/11 09:41:29;;;;;;;21.92;11.27;;;;;9.00;100823.00;;;;5008497;28;20288;-74
2022/12/11 09:44:04;;;;;;;17.55;10.57;;;;;9.10;100821.00;;;;5008880;28;20215;-74
2022/12/11 09:46:33;;;;;;;17.65;11.15;;;;;9.10;100825.00;;;;5008958;28;20248;-74
2022/12/11 09:49:03;;;;;;;16.00;10.63;;;;;9.10;100822.00;;;;5008327;28;20208;-74
2022/12/11 09:51:39;;;;;;;18.55;11.38;;;;;9.10;100825.00;;;;5008937;28;20197;-74
2022/12/11 09:54:06;;;;;;;16.98;10.25;;;;;9.10;100814.00;;;;5012574;28;20220;-74
2022/12/11 09:56:39;;;;;;;16.48;11.07;;;;;9.20;100815.00;;;;5028097;28;20196;-74
2022/12/11 09:59:19;;;;;;;16.98;10.73;;;;;9.10;100818.00;;;;5027928;28;20227;-74
2022/12/11 10:01:50;;;;;;;17.80;10.38;;;;;9.20;100815.00;;;;5028323;28;20204;-74
2022/12/11 10:04:37;;;;;;;16.30;10.40;;;;;9.10;100822.00;;;;5027922;28;20212;-74
2022/12/11 10:07:11;;;;;;;16.20;9.98;;;;;9.20;100823.00;;;;5019883;28;20200;-74
2022/12/11 10:09:49;;;;;;;16.65;10.38;;;;;9.20;100820.00;;;;5008393;28;20697;-74
2022/12/11 10:12:26;;;;;;;14.23;9.18;;;;;9.20;100817.00;;;;5025792;28;20196;-74
2022/12/11 10:15:09;;;;;;;13.45;9.00;;;;;9.20;100823.00;;;;5032035;28;20318;-74
2022/12/11 10:17:38;;;;;;;15.55;9.85;;;;;9.30;100819.00;;;;5032185;28;20257;-74
2022/12/11 10:20:16;;;;;;;14.48;8.82;;;;;9.30;100812.00;;;;5031394;28;20196;-74
2022/12/11 10:22:45;;;;;;;14.38;8.57;;;;;9.30;100813.00;;;;5032262;28;20204;-74
2022/12/11 10:25:19;;;;;;;15.05;8.85;;;;;9.30;100811.00;;;;5031055;28;20196;-74
2022/12/11 10:27:47;;;;;;;14.38;9.50;;;;;9.30;100809.00;;;;5011929;28;20212;-74
2022/12/11 10:30:18;;;;;;;11.98;8.38;;;;;9.30;100809.00;;;;5011876;28;20197;-74
2022/12/11 10:32:52;;;;;;;14.63;9.00;;;;;9.30;100807.00;;;;5012611;28;20205;-74
2022/12/11 10:35:29;;;;;;;13.18;8.50;;;;;9.40;100807.00;;;;5011352;28;20530;-74
2022/12/11 10:38:01;;;;;;;13.30;8.48;;;;;9.40;100803.00;;;;5012248;28;20295;-74
2022/12/11 10:40:31;;;;;;;12.60;8.25;;;;;9.40;100800.00;;;;5011074;28;20197;-74
2022/12/11 10:42:58;;;;;;;13.57;8.70;;;;;9.40;100806.00;;;;5011922;28;20195;-74
2022/12/11 10:45:27;;;;;;;13.80;8.93;;;;;9.40;100797.00;;;;5011269;28;20213;-74
2022/12/11 10:48:03;;;;;;;14.52;8.95;;;;;9.40;100802.00;;;;5012084;28;20205;-74
2022/12/11 10:50:30;;;;;;;13.55;7.88;;;;;9.50;100793.00;;;;5011474;28;20193;-74
2022/12/11 10:52:58;;;;;;;12.50;8.23;;;;;9.50;100794.00;;;;5012644;28;20196;-74
2022/12/11 10:55:28;;;;;;;12.45;7.82;;;;;9.50;100788.00;;;;5011427;28;20602;-74
2022/12/11 10:57:58;;;;;;;13.27;9.13;;;;;9.50;100792.00;;;;5011806;28;20201;-74
2022/12/11 11:00:34;;;;;;;12.80;8.00;;;;;9.50;100787.00;;;;5012110;28;20197;-74
2022/12/11 11:03:02;;;;;;;14.68;8.88;;;;;9.60;100788.00;;;;5011271;28;20287;-74
2022/12/11 11:05:33;;;;;;;12.45;7.30;;;;;9.60;100789.00;;;;5011376;28;20209;-74
2022/12/11 11:08:15;;;;;;;12.30;7.38;;;;;9.50;100788.00;;;;5011318;28;20201;-74
2022/12/11 11:10:56;;;;;;;14.00;8.75;;;;;9.50;100783.00;;;;5011636;28;20193;-74
2022/12/11 11:13:25;;;;;;;13.30;7.95;;;;;9.60;100779.00;;;;5010455;28;20204;-74
2022/12/11 11:16:01;;;;;;;12.80;8.10;;;;;9.60;100772.00;;;;5011558;28;20540;-74
2022/12/11 11:18:30;;;;;;;12.05;7.93;;;;;9.70;100775.00;;;;5010861;28;20208;-74
2022/12/11 11:20:58;;;;;;;12.15;7.05;;;;;9.70;100779.00;;;;5010962;28;20201;-74
2022/12/11 11:23:27;;;;;;;11.48;7.43;;;;;9.70;100776.00;;;;5010751;28;20201;-74
2022/12/11 11:25:56;;;;;;;11.73;7.70;;;;;9.70;100776.00;;;;5009907;28;20220;-72
2022/12/11 11:28:26;;;;;;;11.30;6.78;;;;;9.70;100782.00;;;;5010108;28;20950;-73
2022/12/11 11:31:05;;;;;;;10.68;6.70;;;;;9.60;100782.00;;;;5011123;28;20679;-73
2022/12/11 11:33:35;;;;;;;11.02;7.38;;;;;9.70;100778.00;;;;5010872;28;20205;-73
2022/12/11 11:36:04;;;;;;;11.82;7.40;;;;;9.70;100776.00;;;;5010652;28;20237;-73
2022/12/11 11:38:34;;;;;;;11.32;7.53;;;;;9.70;100772.00;;;;5009869;28;20201;-73
2022/12/11 11:41:12;;;;;;;12.68;6.72;;;;;9.60;100778.00;;;;5010623;28;20216;-73
2022/12/11 11:43:45;;;;;;;11.25;7.20;;;;;9.70;100780.00;;;;5010333;28;20208;-73
2022/12/11 11:46:17;;;;;;;12.07;7.30;;;;;9.70;100770.00;;;;5010824;28;20624;-73
2022/12/11 11:48:55;;;;;;;11.52;6.75;;;;;9.60;100780.00;;;;5010517;28;20252;-73
2022/12/11 11:51:28;;;;;;;12.25;7.75;;;;;9.70;100770.00;;;;5009949;28;20229;-73
2022/12/11 11:54:00;;;;;;;11.52;7.18;;;;;9.70;100763.00;;;;5011337;28;20588;-73
2022/12/11 11:56:33;;;;;;;14.15;7.90;;;;;9.70;100774.00;;;;5010315;28;20719;-72
2022/12/11 11:59:07;;;;;;;10.85;7.28;;;;;9.70;100767.00;;;;5010654;28;20649;-73
2022/12/11 12:01:36;;;;;;;11.32;7.78;;;;;9.70;100757.00;;;;5011128;28;20225;-73
2022/12/11 12:04:04;;;;;;;11.32;7.10;;;;;9.70;100763.00;;;;5009792;28;20254;-73
2022/12/11 12:06:56;;;;;;;11.63;7.43;;;;;9.60;100760.00;;;;5009580;28;20762;-73
2022/12/11 12:09:37;;;;;;;14.57;8.57;;;;;9.60;100766.00;;;;5008942;28;20566;-73
2022/12/11 12:12:17;;;;;;;17.38;8.73;;;;;9.60;100763.00;;;;5017154;28;20569;-73
2022/12/11 12:14:58;;;;;;;12.60;7.93;;;;;9.50;100757.00;;;;5009773;28;20224;-73
2022/12/11 12:17:36;;;;;;;14.00;8.02;;;;;9.60;100754.00;;;;5010094;28;20666;-73
2022/12/11 12:20:13;;;;;;;11.75;7.82;;;;;9.50;100754.00;;;;5010456;28;20237;-73
2022/12/11 12:22:57;;;;;;;11.05;6.68;;;;;9.50;100752.00;;;;5009658;28;20200;-73
2022/12/11 12:25:31;;;;;;;14.43;8.50;;;;;9.50;100755.00;;;;5009955;28;20344;-73